Accueil
METAR-TAF:

METAR-TAF

Aéroports :

Aéroport de Waskaganish

Waskaganish, Québec, Canada

latitude: 51-29N, longitude: 078-45W, altitude: 23 m

Observation

Le bulletin a été fait il y a 1 heure et 4 minutes, à 21:00 UTC
Vent 4 kt de nord-ouest
Température -28°C
Humidité 75%
Pression 1031 hPa
Visibilité: 19.3 km
Ciel clair

METAR: CYKQ 202100Z 32004KT 12SM SKC M28/M31 A3044 RMK SLP315

Heure: 17:04 (22:04 UTC)

Prévision

Le bulletin a été fait il y a 6 heures et 26 minutes, à 15:38 UTC
Prévision valable du 20 à 16 UTC au 20 à 22 UTC
Vent 3 kt de direction variable
Visibilité: 10 km
Ciel clair
Temporairement
du 20 à 16 UTC au 20 à 22 UTC
Visibilité: 6.4 km
cristaux de glace, brume sèche
Probabilité 30%
du 20 à 16 UTC au 20 à 22 UTC
cristaux de glace

TAF: CYKQ 201538Z 2016/2022 VRB03KT P6SM SKC TEMPO 2016/2022 4SM IC HZ PROB30 2016/2022 11/2SM IC RMK NXT FCST WILL BE ISSUED AT 211545Z

Observations et prévisions météorologiques de plus de 4000 aéroports (messages METAR et TAF).

Les stations disponibles sont représentées par des disques jaunes et rouges sur la carte.

Passer la souris dessus pour voir le nom de la station.

Cliquer dessus pour voir les observations et prévisions météorologiques.

Pour changer de carte: cliquez sur les boutons verts avec une croix noire pour zoomer, sur le bouton vert avec un tiret pour effectuer un zoom arrière, ou sur les flèches vertes pour les cartes adjacentes.


METAR-TAF: